Alpedrete, Spain
Current Conditions -  °F | °C
As of 7:30 AM on Thursday 27 Nov 2014 (Local Time) from LEVS Reporting Station
Broken Clouds Broken Clouds  
Wind Chill: 48°   Ceiling: 5200
Heat Index: 48°   Visibility: 6mi
Dew Point: 43°   Wind: 2mph
Humidity: 82%   Direction: NA
Pressure: 29.65"   Gusts: NA
Location:  40.66°N, 4.03°W
Report Text: LEVS 270630Z VRB02KT 9999 FEW039 BKN052 09/06 Q1004
Loading
Personal Weather Stations






























Interactive Weather Map New forecast layout! Learn more

10-Day Weather Forecast

Advertisements
Track Severe Weather on mobile